createdAt,value
2022-08-03T00:00:37.114Z,51.216087
2022-08-03T00:01:37.102Z,51.216087
2022-08-03T00:02:37.123Z,51.216076
2022-08-03T00:03:37.091Z,51.216045
2022-08-03T00:04:37.086Z,51.216022
2022-08-03T00:05:37.096Z,51.215996
2022-08-03T00:06:37.428Z,51.215984
2022-08-03T00:07:38.062Z,51.215984
2022-08-03T00:08:40.057Z,51.216015
2022-08-03T00:09:37.049Z,51.216038
2022-08-03T00:10:37.039Z,51.216068
2022-08-03T00:11:38.034Z,51.216084
2022-08-03T00:12:37.026Z,51.216064
2022-08-03T00:13:37.022Z,51.216080
2022-08-03T00:14:37.018Z,51.216099
2022-08-03T00:15:37.009Z,51.216064
2022-08-03T00:16:37.005Z,51.216072
2022-08-03T00:17:53.674Z,51.216026
2022-08-03T00:18:37.994Z,51.216022
2022-08-03T00:19:36.978Z,51.216034
2022-08-03T00:20:37.010Z,51.216007
2022-08-03T00:21:36.971Z,51.216026
2022-08-03T00:22:36.959Z,51.216057
2022-08-03T00:23:52.510Z,51.216042
2022-08-03T00:24:37.946Z,51.215992
2022-08-03T00:25:36.970Z,51.216015
2022-08-03T00:26:36.942Z,51.216076
2022-08-03T00:27:36.935Z,51.216072
2022-08-03T00:28:36.922Z,51.216095
2022-08-03T00:29:59.642Z,51.216106
2022-08-03T00:30:37.921Z,51.216080
2022-08-03T00:31:51.688Z,51.216045
2022-08-03T00:32:38.823Z,51.216087
2022-08-03T00:33:58.921Z,51.216087
2022-08-03T00:34:57.228Z,51.216110
2022-08-03T00:35:50.362Z,51.216022
2022-08-03T00:36:37.883Z,51.216061
2022-08-03T00:37:41.320Z,51.216137
2022-08-03T00:38:37.855Z,51.216122
2022-08-03T00:39:36.853Z,51.215996
2022-08-03T00:40:36.846Z,51.216022
2022-08-03T00:41:36.848Z,51.216064
2022-08-03T00:42:36.827Z,51.216034
2022-08-03T00:43:36.822Z,51.216084
2022-08-03T00:44:36.814Z,51.216175
2022-08-03T00:45:36.791Z,51.216133
2022-08-03T00:46:36.815Z,51.216053
2022-08-03T00:47:36.781Z,51.215996
2022-08-03T00:48:36.795Z,51.216110
2022-08-03T00:49:36.824Z,51.216042
2022-08-03T00:50:36.781Z,51.216049
2022-08-03T00:51:36.766Z,51.216145
2022-08-03T00:52:36.775Z,51.216118
2022-08-03T00:53:36.753Z,51.216110
2022-08-03T00:54:36.739Z,51.216145
2022-08-03T00:55:36.734Z,51.216160
2022-08-03T00:56:36.726Z,51.216145
2022-08-03T00:57:36.734Z,51.215946
2022-08-03T00:58:36.710Z,51.216118
2022-08-03T00:59:36.705Z,51.216148
2022-08-03T01:00:36.698Z,51.216270
2022-08-03T01:01:36.719Z,51.216209
2022-08-03T01:02:36.686Z,51.216358
2022-08-03T01:03:36.690Z,51.216236
2022-08-03T01:04:36.673Z,51.216278
2022-08-03T01:05:36.657Z,51.216190
2022-08-03T01:06:36.659Z,51.216148
2022-08-03T01:07:36.657Z,51.216049
2022-08-03T01:08:36.651Z,51.216053
2022-08-03T01:09:36.640Z,51.216106
2022-08-03T01:10:36.626Z,51.216087
2022-08-03T01:11:36.626Z,51.216183
2022-08-03T01:12:37.633Z,51.216202
2022-08-03T01:14:04.476Z,51.216183
2022-08-03T01:14:37.601Z,51.216145
2022-08-03T01:15:36.593Z,51.216145
2022-08-03T01:16:37.223Z,51.216129
2022-08-03T01:17:36.604Z,51.216190
2022-08-03T01:18:36.577Z,51.216167
2022-08-03T01:19:36.561Z,51.216080
2022-08-03T01:20:36.562Z,51.216022
2022-08-03T01:21:36.558Z,51.216099
2022-08-03T01:22:36.562Z,51.216049
2022-08-03T01:23:36.529Z,51.216026
2022-08-03T01:24:37.531Z,51.216072
2022-08-03T01:25:36.560Z,51.216084
2022-08-03T01:26:36.517Z,51.216057
2022-08-03T01:27:36.517Z,51.216122
2022-08-03T01:28:36.521Z,51.216103
2022-08-03T01:29:36.505Z,51.216095
2022-08-03T01:30:36.490Z,51.216076
2022-08-03T01:31:36.491Z,51.216095
2022-08-03T01:32:59.421Z,51.216045
2022-08-03T01:33:37.486Z,51.216072
2022-08-03T01:34:36.469Z,51.216042
2022-08-03T01:35:38.442Z,51.216087
2022-08-03T01:36:36.451Z,51.216057
2022-08-03T01:37:36.447Z,51.216064
2022-08-03T01:38:36.457Z,51.216106
2022-08-03T01:39:36.430Z,51.216080
2022-08-03T01:40:36.429Z,51.216042
2022-08-03T01:41:36.416Z,51.216118
2022-08-03T01:42:36.414Z,51.216099
2022-08-03T01:44:26.828Z,51.216076
2022-08-03T01:44:37.413Z,51.216057
2022-08-03T01:45:36.389Z,51.216049
2022-08-03T01:46:36.392Z,51.216084
2022-08-03T01:47:36.377Z,51.216030
2022-08-03T01:48:36.364Z,51.216118
2022-08-03T01:49:36.417Z,51.216148
2022-08-03T01:50:36.346Z,51.216068
2022-08-03T01:52:02.761Z,51.216114
2022-08-03T01:52:37.340Z,51.216122
2022-08-03T01:53:36.333Z,51.216110
2022-08-03T01:54:36.370Z,51.216091
2022-08-03T01:55:36.325Z,51.216064
2022-08-03T01:56:36.317Z,51.216084
2022-08-03T01:58:04.813Z,51.216125
2022-08-03T01:58:37.298Z,51.216099
2022-08-03T01:59:36.304Z,51.216171
2022-08-03T02:00:36.297Z,51.216152
2022-08-03T02:02:28.326Z,51.216133
2022-08-03T02:02:37.645Z,51.216080
2022-08-03T02:03:36.273Z,51.216110
2022-08-03T02:04:36.252Z,51.216125
2022-08-03T02:05:36.267Z,51.216072
2022-08-03T02:07:01.968Z,51.216084
2022-08-03T02:07:37.237Z,51.216084
2022-08-03T02:08:36.232Z,51.216118
2022-08-03T02:09:36.224Z,51.216137
2022-08-03T02:10:36.234Z,51.216030
2022-08-03T02:11:36.209Z,51.216064
2022-08-03T02:12:36.212Z,51.216202
2022-08-03T02:13:36.194Z,51.216160
2022-08-03T02:14:36.196Z,51.216080
2022-08-03T02:15:36.208Z,51.216175
2022-08-03T02:16:36.173Z,51.216164
2022-08-03T02:17:39.124Z,51.216175
2022-08-03T02:18:36.168Z,51.216129
2022-08-03T02:19:36.160Z,51.216030
2022-08-03T02:20:36.160Z,51.216125
2022-08-03T02:21:56.746Z,51.216091
2022-08-03T02:22:37.136Z,51.216125
2022-08-03T02:23:36.131Z,51.216160
2022-08-03T02:24:36.134Z,51.216064
2022-08-03T02:25:36.115Z,51.216064
2022-08-03T02:26:36.112Z,51.216061
2022-08-03T02:27:39.384Z,51.215969
2022-08-03T02:28:37.091Z,51.216110
2022-08-03T02:29:39.457Z,51.216076
2022-08-03T02:30:36.104Z,51.216038
2022-08-03T02:31:36.087Z,51.216030
2022-08-03T02:32:36.078Z,51.215965
2022-08-03T02:33:36.063Z,51.216015
2022-08-03T02:34:36.059Z,51.216125
2022-08-03T02:35:36.047Z,51.216175
2022-08-03T02:36:36.052Z,51.216091
2022-08-03T02:37:36.032Z,51.216091
2022-08-03T02:38:36.020Z,51.216103
2022-08-03T02:39:36.032Z,51.216183
2022-08-03T02:40:36.020Z,51.216106
2022-08-03T02:41:36.020Z,51.216125
2022-08-03T02:42:36.000Z,51.216198
2022-08-03T02:43:40.209Z,51.216099
2022-08-03T02:44:36.987Z,51.216103
2022-08-03T02:45:35.983Z,51.216026
2022-08-03T02:46:36.004Z,51.216133
2022-08-03T02:47:53.653Z,51.216091
2022-08-03T02:48:36.964Z,51.216221
2022-08-03T02:49:49.731Z,51.216148
2022-08-03T02:50:36.940Z,51.216118
2022-08-03T02:51:35.963Z,51.216160
2022-08-03T02:52:35.927Z,51.216072
2022-08-03T02:53:35.916Z,51.215954
2022-08-03T02:54:35.919Z,51.216084
2022-08-03T02:55:35.909Z,51.216137
2022-08-03T02:56:36.916Z,51.216080
2022-08-03T02:57:35.891Z,51.216106
2022-08-03T02:58:35.875Z,51.216125
2022-08-03T02:59:35.883Z,51.216053
2022-08-03T03:00:35.883Z,51.216125
2022-08-03T03:01:35.866Z,51.216129
2022-08-03T03:02:35.878Z,51.216106
2022-08-03T03:03:44.585Z,51.216118
2022-08-03T03:04:36.843Z,51.216125
2022-08-03T03:05:56.008Z,51.216167
2022-08-03T03:06:36.820Z,51.216167
2022-08-03T03:07:51.472Z,51.216057
2022-08-03T03:08:36.815Z,51.216194
2022-08-03T03:09:41.577Z,51.216049
2022-08-03T03:10:36.795Z,51.216091
2022-08-03T03:11:35.791Z,51.216202
2022-08-03T03:12:35.787Z,51.216301
2022-08-03T03:13:35.763Z,51.216122
2022-08-03T03:14:35.768Z,51.216129
2022-08-03T03:15:35.748Z,51.216080
2022-08-03T03:16:35.755Z,51.216038
2022-08-03T03:17:35.755Z,51.215939
2022-08-03T03:18:35.733Z,51.215992
2022-08-03T03:19:35.734Z,51.215958
2022-08-03T03:20:35.729Z,51.215954
2022-08-03T03:21:35.711Z,51.216053
2022-08-03T03:22:35.715Z,51.216087
2022-08-03T03:23:35.707Z,51.216110
2022-08-03T03:24:35.703Z,51.216038
2022-08-03T03:25:35.704Z,51.216141
2022-08-03T03:26:37.374Z,51.216110
2022-08-03T03:27:36.682Z,51.216057
2022-08-03T03:28:35.682Z,51.216091
2022-08-03T03:29:39.164Z,51.216156
2022-08-03T03:30:35.676Z,51.216183
2022-08-03T03:31:35.647Z,51.216064
2022-08-03T03:32:35.648Z,51.216038
2022-08-03T03:33:35.635Z,51.216118
2022-08-03T03:34:35.630Z,51.216171
2022-08-03T03:35:39.013Z,51.216122
2022-08-03T03:36:35.618Z,51.216068
2022-08-03T03:37:35.615Z,51.216122
2022-08-03T03:38:35.604Z,51.216084
2022-08-03T03:39:35.596Z,51.216076
2022-08-03T03:40:35.598Z,51.216137
2022-08-03T03:41:35.566Z,51.216175
2022-08-03T03:42:35.579Z,51.216068
2022-08-03T03:43:35.570Z,51.216072
2022-08-03T03:44:35.550Z,51.216019
2022-08-03T03:45:35.574Z,51.216007
2022-08-03T03:46:35.547Z,51.216068
2022-08-03T03:47:35.530Z,51.215961
2022-08-03T03:48:35.510Z,51.216076
2022-08-03T03:49:35.559Z,51.216103
2022-08-03T03:50:35.509Z,51.216076
2022-08-03T03:51:36.522Z,51.216076
2022-08-03T03:52:35.495Z,51.216084
2022-08-03T03:53:35.494Z,51.216080
2022-08-03T03:54:35.479Z,51.216080
2022-08-03T03:55:35.490Z,51.216034
2022-08-03T03:56:36.474Z,51.216042
2022-08-03T03:57:35.469Z,51.216099
2022-08-03T03:58:35.458Z,51.216145
2022-08-03T03:59:36.018Z,51.216129
2022-08-03T04:00:35.490Z,51.216103
2022-08-03T04:01:35.446Z,51.216145
2022-08-03T04:02:35.436Z,51.216145
2022-08-03T04:03:35.423Z,51.216114
2022-08-03T04:04:35.421Z,51.216103
2022-08-03T04:05:35.405Z,51.216118
2022-08-03T04:06:35.422Z,51.216122
2022-08-03T04:07:35.391Z,51.216091
2022-08-03T04:08:35.390Z,51.216076
2022-08-03T04:09:35.380Z,51.216045
2022-08-03T04:10:35.406Z,51.216076
2022-08-03T04:11:35.393Z,51.216099
2022-08-03T04:12:35.358Z,51.216141
2022-08-03T04:13:35.365Z,51.216095
2022-08-03T04:14:35.353Z,51.216148
2022-08-03T04:15:35.336Z,51.216190
2022-08-03T04:16:35.325Z,51.216167
2022-08-03T04:17:35.340Z,51.216087
2022-08-03T04:18:35.301Z,51.216068
2022-08-03T04:19:36.320Z,51.216057
2022-08-03T04:20:35.299Z,51.216072
2022-08-03T04:21:35.290Z,51.216030
2022-08-03T04:22:35.286Z,51.216026
2022-08-03T04:23:35.282Z,51.216095
2022-08-03T04:24:35.278Z,51.216118
2022-08-03T04:25:35.254Z,51.216091
2022-08-03T04:26:35.262Z,51.216091
2022-08-03T04:27:35.249Z,51.215965
2022-08-03T04:28:35.245Z,51.216019
2022-08-03T04:29:35.241Z,51.216125
2022-08-03T04:30:35.217Z,51.216114
2022-08-03T04:31:35.220Z,51.216045
2022-08-03T04:32:35.206Z,51.216064
2022-08-03T04:33:35.211Z,51.216087
2022-08-03T04:34:35.206Z,51.216122
2022-08-03T04:35:54.763Z,51.216072
2022-08-03T04:36:36.182Z,51.215965
2022-08-03T04:37:35.171Z,51.215923
2022-08-03T04:38:35.158Z,51.216125
2022-08-03T04:39:35.179Z,51.216129
2022-08-03T04:40:35.149Z,51.216125
2022-08-03T04:42:07.931Z,51.216228
2022-08-03T04:42:36.133Z,51.216087
2022-08-03T04:43:35.130Z,51.216045
2022-08-03T04:44:35.130Z,51.216122
2022-08-03T04:45:35.107Z,51.216129
2022-08-03T04:46:35.106Z,51.216141
2022-08-03T04:47:35.089Z,51.216175
2022-08-03T04:48:35.089Z,51.216171
2022-08-03T04:49:35.167Z,51.216290
2022-08-03T04:50:35.079Z,51.216320
2022-08-03T04:51:35.066Z,51.216267
2022-08-03T04:52:35.050Z,51.216190
2022-08-03T04:53:35.054Z,51.216282
2022-08-03T04:54:35.049Z,51.216106
2022-08-03T04:55:35.029Z,51.216034
2022-08-03T04:56:35.030Z,51.216209
2022-08-03T04:57:35.022Z,51.216171
2022-08-03T04:58:35.021Z,51.216148
2022-08-03T04:59:35.018Z,51.216244
2022-08-03T05:00:35.030Z,51.216095
2022-08-03T05:01:35.035Z,51.216187
2022-08-03T05:02:34.984Z,51.216312
2022-08-03T05:03:34.978Z,51.216270
2022-08-03T05:04:34.979Z,51.216206
2022-08-03T05:05:49.715Z,51.216145
2022-08-03T05:06:35.956Z,51.216095
2022-08-03T05:07:36.205Z,51.216084
2022-08-03T05:08:34.940Z,51.216106
2022-08-03T05:09:49.871Z,51.216236
2022-08-03T05:10:35.950Z,51.216316
2022-08-03T05:11:34.921Z,51.216389
2022-08-03T05:12:34.914Z,51.216354
2022-08-03T05:13:34.907Z,51.216434
2022-08-03T05:14:34.903Z,51.216496
2022-08-03T05:15:34.894Z,51.216648
2022-08-03T05:16:35.895Z,51.216679
2022-08-03T05:17:34.900Z,51.216461
2022-08-03T05:18:34.879Z,51.216183
2022-08-03T05:19:34.879Z,51.216480
2022-08-03T05:20:34.867Z,51.216492
2022-08-03T05:21:52.059Z,51.216270
2022-08-03T05:22:35.850Z,51.216259
2022-08-03T05:23:34.839Z,51.216160
2022-08-03T05:24:34.827Z,51.216213
2022-08-03T05:25:34.830Z,51.216087
2022-08-03T05:26:34.887Z,51.216076
2022-08-03T05:27:34.810Z,51.216053
2022-08-03T05:28:34.802Z,51.216183
2022-08-03T05:29:34.804Z,51.216133
2022-08-03T05:30:34.890Z,51.216099
2022-08-03T05:31:34.790Z,51.216007
2022-08-03T05:32:34.783Z,51.216038
2022-08-03T05:33:34.759Z,51.216187
2022-08-03T05:34:34.767Z,51.216133
2022-08-03T05:35:57.983Z,51.216068
2022-08-03T05:36:35.779Z,51.216183
2022-08-03T05:37:34.743Z,51.216007
2022-08-03T05:38:35.583Z,51.216129
2022-08-03T05:39:34.723Z,51.216152
2022-08-03T05:40:34.714Z,51.216171
2022-08-03T05:41:37.054Z,51.216236
2022-08-03T05:42:34.719Z,51.216095
2022-08-03T05:43:34.705Z,51.216114
2022-08-03T05:44:34.698Z,51.216118
2022-08-03T05:45:34.679Z,51.216137
2022-08-03T05:46:35.678Z,51.216137
2022-08-03T05:47:34.695Z,51.216072
2022-08-03T05:48:34.667Z,51.216125
2022-08-03T05:49:34.755Z,51.216019
2022-08-03T05:50:34.655Z,51.216011
2022-08-03T05:51:34.635Z,51.215908
2022-08-03T05:52:34.635Z,51.216042
2022-08-03T05:53:34.650Z,51.216034
2022-08-03T05:54:55.606Z,51.216106
2022-08-03T05:55:35.619Z,51.215996
2022-08-03T05:56:34.614Z,51.216057
2022-08-03T05:57:34.603Z,51.216049
2022-08-03T05:58:34.607Z,51.215942
2022-08-03T05:59:38.693Z,51.216030
2022-08-03T06:00:35.586Z,51.216061
2022-08-03T06:01:34.610Z,51.216129
2022-08-03T06:02:34.571Z,51.216183
2022-08-03T06:03:34.573Z,51.216133
2022-08-03T06:04:34.575Z,51.216110
2022-08-03T06:05:34.547Z,51.216099
2022-08-03T06:06:35.543Z,51.216049
2022-08-03T06:07:34.537Z,51.216171
2022-08-03T06:08:34.527Z,51.216129
2022-08-03T06:10:33.733Z,51.216171
2022-08-03T06:10:38.353Z,51.216160
2022-08-03T06:11:34.515Z,51.216129
2022-08-03T06:12:34.511Z,51.216236
2022-08-03T06:13:34.510Z,51.216270
2022-08-03T06:14:34.524Z,51.216278
2022-08-03T06:15:34.487Z,51.216164
2022-08-03T06:16:34.483Z,51.216084
2022-08-03T06:17:37.236Z,51.216114
2022-08-03T06:18:34.462Z,51.216129
2022-08-03T06:19:34.470Z,51.216087
2022-08-03T06:20:34.455Z,51.216156
2022-08-03T06:21:34.451Z,51.216202
2022-08-03T06:22:34.431Z,51.216209
2022-08-03T06:23:53.264Z,51.216167
2022-08-03T06:24:35.438Z,51.216103
2022-08-03T06:25:34.418Z,51.216137
2022-08-03T06:26:34.408Z,51.216171
2022-08-03T06:27:36.548Z,51.216187
2022-08-03T06:28:53.303Z,51.216187
2022-08-03T06:29:36.395Z,51.216244
2022-08-03T06:30:34.399Z,51.216194
2022-08-03T06:31:34.380Z,51.216061
2022-08-03T06:32:34.362Z,51.216007
2022-08-03T06:34:31.539Z,51.216114
2022-08-03T06:34:35.843Z,51.216133
2022-08-03T06:35:34.371Z,51.216183
2022-08-03T06:36:34.343Z,51.216171
2022-08-03T06:37:34.352Z,51.216160
2022-08-03T06:38:34.319Z,51.216095
2022-08-03T06:39:34.331Z,51.216114
2022-08-03T06:40:34.331Z,51.216106
2022-08-03T06:41:38.025Z,51.216026
2022-08-03T06:42:34.307Z,51.216080
2022-08-03T06:43:35.857Z,51.216072
2022-08-03T06:44:34.299Z,51.216164
2022-08-03T06:45:34.303Z,51.216125
2022-08-03T06:46:34.291Z,51.216068
2022-08-03T06:47:34.275Z,51.216076
2022-08-03T06:48:34.282Z,51.216106
2022-08-03T06:49:34.344Z,51.216030
2022-08-03T06:50:34.275Z,51.216156
2022-08-03T06:52:03.239Z,51.216213
2022-08-03T06:52:37.879Z,51.216236
2022-08-03T06:53:34.244Z,51.216156
2022-08-03T06:54:34.219Z,51.216038
2022-08-03T06:55:34.266Z,51.216038
2022-08-03T06:56:35.220Z,51.216042
2022-08-03T06:57:34.235Z,51.215977
2022-08-03T06:58:34.203Z,51.216080
2022-08-03T07:00:06.427Z,51.216099
2022-08-03T07:00:35.187Z,51.216095
2022-08-03T07:01:34.231Z,51.216095
2022-08-03T07:02:34.191Z,51.216007
2022-08-03T07:03:34.165Z,51.215942
2022-08-03T07:04:34.167Z,51.216057
2022-08-03T07:05:34.165Z,51.216057
2022-08-03T07:06:34.152Z,51.216160
2022-08-03T07:07:34.149Z,51.216106
2022-08-03T07:08:34.621Z,51.216110
2022-08-03T07:09:35.132Z,51.216122
2022-08-03T07:10:34.125Z,51.216194
2022-08-03T07:11:34.120Z,51.216110
2022-08-03T07:12:34.108Z,51.216152
2022-08-03T07:13:34.118Z,51.216187
2022-08-03T07:14:34.103Z,51.216049
2022-08-03T07:15:53.921Z,51.216064
2022-08-03T07:16:35.087Z,51.216003
2022-08-03T07:17:34.099Z,51.215992
2022-08-03T07:18:34.071Z,51.216209
2022-08-03T07:19:34.056Z,51.216236
2022-08-03T07:20:34.061Z,51.216259
2022-08-03T07:21:34.044Z,51.216282
2022-08-03T07:22:34.059Z,51.216156
2022-08-03T07:23:34.035Z,51.216099
2022-08-03T07:24:34.024Z,51.216099
2022-08-03T07:25:34.024Z,51.216019
2022-08-03T07:26:34.023Z,51.216015
2022-08-03T07:27:34.023Z,51.216049
2022-08-03T07:28:34.004Z,51.216099
2022-08-03T07:29:34.905Z,51.216125
2022-08-03T07:30:33.979Z,51.215981
2022-08-03T07:31:34.359Z,51.215977
2022-08-03T07:32:33.984Z,51.216125
2022-08-03T07:33:33.975Z,51.216156
2022-08-03T07:34:33.964Z,51.216213
2022-08-03T07:35:34.043Z,51.216145
2022-08-03T07:36:34.435Z,51.216110
2022-08-03T07:37:34.019Z,51.216145
2022-08-03T07:38:33.938Z,51.216152
2022-08-03T07:39:33.923Z,51.216152
2022-08-03T07:40:33.930Z,51.216152
2022-08-03T07:41:33.922Z,51.216110
2022-08-03T07:42:33.912Z,51.216099
2022-08-03T07:43:33.910Z,51.216042
2022-08-03T07:44:33.899Z,51.215992
2022-08-03T07:45:33.975Z,51.215977
2022-08-03T07:46:33.908Z,51.216042
2022-08-03T07:47:34.998Z,51.216137
2022-08-03T07:48:33.879Z,51.216164
2022-08-03T07:49:33.939Z,51.216202
2022-08-03T07:50:33.867Z,51.216133
2022-08-03T07:51:33.862Z,51.216080
2022-08-03T07:52:33.839Z,51.216194
2022-08-03T07:53:33.842Z,51.216183
2022-08-03T07:54:34.840Z,51.216209
2022-08-03T07:55:34.017Z,51.216148
2022-08-03T07:56:33.818Z,51.216164
2022-08-03T07:57:33.828Z,51.216148
2022-08-03T07:58:33.823Z,51.216141
2022-08-03T07:59:57.102Z,51.216183
2022-08-03T08:00:35.796Z,51.216164
2022-08-03T08:01:33.846Z,51.216064
2022-08-03T08:02:33.790Z,51.216148
2022-08-03T08:03:41.111Z,51.216213
2022-08-03T08:04:34.786Z,51.216179
2022-08-03T08:05:33.759Z,51.216141
2022-08-03T08:06:33.794Z,51.216175
2022-08-03T08:07:33.752Z,51.216171
2022-08-03T08:08:33.726Z,51.216137
2022-08-03T08:09:34.742Z,51.216091
2022-08-03T08:10:33.722Z,51.216061
2022-08-03T08:11:38.177Z,51.216133
2022-08-03T08:12:35.726Z,51.216133
2022-08-03T08:13:33.711Z,51.216103
2022-08-03T08:14:33.738Z,51.216232
2022-08-03T08:15:33.714Z,51.216145
2022-08-03T08:16:33.695Z,51.216179
2022-08-03T08:17:33.690Z,51.216038
2022-08-03T08:18:33.678Z,51.216091
2022-08-03T08:19:33.682Z,51.216114
2022-08-03T08:20:34.900Z,51.216118
2022-08-03T08:21:53.214Z,51.216122
2022-08-03T08:22:34.698Z,51.216164
2022-08-03T08:23:43.759Z,51.216164
2022-08-03T08:24:35.737Z,51.216167
2022-08-03T08:25:33.637Z,51.216076
2022-08-03T08:26:33.634Z,51.216106
2022-08-03T08:28:22.452Z,51.216053
2022-08-03T08:28:34.654Z,51.216152
2022-08-03T08:29:34.618Z,51.216244
2022-08-03T08:30:33.610Z,51.216187
2022-08-03T08:31:33.593Z,51.216198
2022-08-03T08:32:33.607Z,51.216110
2022-08-03T08:33:48.343Z,51.216145
2022-08-03T08:34:34.578Z,51.216206
2022-08-03T08:35:33.590Z,51.216145
2022-08-03T08:36:33.566Z,51.216164
2022-08-03T08:37:33.562Z,51.216122
2022-08-03T08:38:33.553Z,51.216160
2022-08-03T08:39:33.546Z,51.216114
2022-08-03T08:40:33.554Z,51.216152
2022-08-03T08:41:33.522Z,51.216053
2022-08-03T08:42:33.526Z,51.216187
2022-08-03T08:43:33.521Z,51.216148
2022-08-03T08:44:33.514Z,51.216190
2022-08-03T08:45:33.503Z,51.216076
2022-08-03T08:46:33.513Z,51.216160
2022-08-03T08:47:51.044Z,51.216145
2022-08-03T08:48:34.485Z,51.216118
2022-08-03T08:49:33.542Z,51.216152
2022-08-03T08:50:33.479Z,51.216068
2022-08-03T08:51:59.777Z,51.216015
2022-08-03T08:52:34.643Z,51.216003
2022-08-03T08:53:33.457Z,51.216064
2022-08-03T08:54:33.453Z,51.216164
2022-08-03T08:55:58.897Z,51.216099
2022-08-03T08:56:34.477Z,51.216091
2022-08-03T08:57:42.951Z,51.216057
2022-08-03T08:58:35.425Z,51.216084
2022-08-03T08:59:48.491Z,51.216145
2022-08-03T09:00:34.418Z,51.216160
2022-08-03T09:01:33.471Z,51.216156
2022-08-03T09:02:33.405Z,51.216236
2022-08-03T09:03:33.401Z,51.216209
2022-08-03T09:04:33.393Z,51.216217
2022-08-03T09:05:54.936Z,51.216175
2022-08-03T09:06:35.403Z,51.216179
2022-08-03T09:07:33.737Z,51.216167
2022-08-03T09:08:33.385Z,51.216156
2022-08-03T09:10:12.570Z,51.216244
2022-08-03T09:10:34.357Z,51.216217
2022-08-03T09:11:52.558Z,51.216133
2022-08-03T09:12:41.539Z,51.216110
2022-08-03T09:13:35.361Z,51.216103
2022-08-03T09:14:36.763Z,51.216179
2022-08-03T09:15:33.326Z,51.216175
2022-08-03T09:16:33.326Z,51.216057
2022-08-03T09:17:33.309Z,51.215954
2022-08-03T09:18:33.474Z,51.215889
2022-08-03T09:19:33.328Z,51.215931
2022-08-03T09:20:33.306Z,51.216091
2022-08-03T09:21:34.459Z,51.216225
2022-08-03T09:22:33.298Z,51.216309
2022-08-03T09:23:59.233Z,51.216137
2022-08-03T09:24:41.535Z,51.216156
2022-08-03T09:25:35.274Z,51.216202
2022-08-03T09:26:33.263Z,51.216251
2022-08-03T09:27:33.262Z,51.216339
2022-08-03T09:28:59.943Z,51.216278
2022-08-03T09:29:34.268Z,51.216259
2022-08-03T09:30:35.105Z,51.216320
2022-08-03T09:31:33.235Z,51.216278
2022-08-03T09:32:33.229Z,51.216240
2022-08-03T09:33:35.918Z,51.216171
2022-08-03T09:34:33.238Z,51.216152
2022-08-03T09:35:51.570Z,51.216145
2022-08-03T09:36:35.188Z,51.216148
2022-08-03T09:38:12.048Z,51.216087
2022-08-03T09:38:34.191Z,51.216160
2022-08-03T09:39:41.955Z,51.216160
2022-08-03T09:40:34.189Z,51.216022
2022-08-03T09:41:33.172Z,51.216110
2022-08-03T09:42:33.163Z,51.216095
2022-08-03T09:43:33.164Z,51.216061
2022-08-03T09:44:33.156Z,51.216129
2022-08-03T09:45:33.156Z,51.216084
2022-08-03T09:46:33.144Z,51.216091
2022-08-03T09:47:33.144Z,51.216038
2022-08-03T09:48:33.139Z,51.216057
2022-08-03T09:49:33.228Z,51.216103
2022-08-03T09:50:33.124Z,51.216129
2022-08-03T09:52:31.765Z,51.216228
2022-08-03T09:52:38.801Z,51.216129
2022-08-03T09:53:34.116Z,51.216091
2022-08-03T09:54:33.113Z,51.216057
2022-08-03T09:56:34.219Z,51.216076
2022-08-03T09:56:37.080Z,51.216148
2022-08-03T09:57:33.087Z,51.216011
2022-08-03T09:58:33.076Z,51.216106
2022-08-03T09:59:33.253Z,51.216076
2022-08-03T10:00:33.073Z,51.216167
2022-08-03T10:01:33.101Z,51.216084
2022-08-03T10:02:33.061Z,51.216129
2022-08-03T10:03:33.044Z,51.216129
2022-08-03T10:04:33.056Z,51.216118
2022-08-03T10:05:33.057Z,51.216072
2022-08-03T10:06:33.038Z,51.216171
2022-08-03T10:07:33.033Z,51.216179
2022-08-03T10:08:33.017Z,51.216084
2022-08-03T10:09:33.038Z,51.216156
2022-08-03T10:10:33.053Z,51.216171
2022-08-03T10:11:35.227Z,51.216072
2022-08-03T10:12:33.004Z,51.216080
2022-08-03T10:13:32.996Z,51.216110
2022-08-03T10:14:33.012Z,51.216053
2022-08-03T10:16:22.286Z,51.216099
2022-08-03T10:16:33.971Z,51.216022
2022-08-03T10:17:35.194Z,51.216068
2022-08-03T10:18:33.964Z,51.216057
2022-08-03T10:19:32.991Z,51.216084
2022-08-03T10:20:32.989Z,51.215973
2022-08-03T10:21:33.001Z,51.216072
2022-08-03T10:22:32.941Z,51.216076
2022-08-03T10:23:34.063Z,51.216114
2022-08-03T10:24:33.957Z,51.216141
2022-08-03T10:25:33.551Z,51.216064
2022-08-03T10:26:32.929Z,51.216099
2022-08-03T10:27:32.916Z,51.216026
2022-08-03T10:28:32.921Z,51.215912
2022-08-03T10:29:32.915Z,51.215984
2022-08-03T10:30:33.008Z,51.216114
2022-08-03T10:31:32.908Z,51.216145
2022-08-03T10:32:32.964Z,51.216118
2022-08-03T10:33:51.149Z,51.216156
2022-08-03T10:34:33.877Z,51.216190
2022-08-03T10:35:32.916Z,51.216187
2022-08-03T10:36:32.875Z,51.216133
2022-08-03T10:37:32.880Z,51.216015
2022-08-03T10:38:32.864Z,51.216045
2022-08-03T10:39:32.864Z,51.216091
2022-08-03T10:40:47.969Z,51.216087
2022-08-03T10:41:34.872Z,51.216187
2022-08-03T10:42:32.844Z,51.216343
2022-08-03T10:43:32.828Z,51.216286
2022-08-03T10:44:32.832Z,51.216351
2022-08-03T10:45:32.847Z,51.216248
2022-08-03T10:46:32.849Z,51.216167
2022-08-03T10:47:32.841Z,51.216114
2022-08-03T10:48:32.817Z,51.215981
2022-08-03T10:49:34.492Z,51.216019
2022-08-03T10:50:32.808Z,51.216095
2022-08-03T10:51:32.815Z,51.216129
2022-08-03T10:52:39.513Z,51.216022
2022-08-03T10:53:34.788Z,51.216061
2022-08-03T10:54:32.797Z,51.216114
2022-08-03T10:55:32.792Z,51.216099
2022-08-03T10:56:48.134Z,51.216030
2022-08-03T10:57:33.828Z,51.216053
2022-08-03T10:58:32.796Z,51.216030
2022-08-03T10:59:32.800Z,51.216187
2022-08-03T11:00:32.820Z,51.216236
2022-08-03T11:01:58.962Z,51.216251
2022-08-03T11:02:33.747Z,51.216091
2022-08-03T11:03:32.758Z,51.216068
2022-08-03T11:04:32.756Z,51.216015
2022-08-03T11:05:32.730Z,51.215984
2022-08-03T11:06:37.471Z,51.216049
2022-08-03T11:07:33.730Z,51.215919
2022-08-03T11:08:32.738Z,51.216026
2022-08-03T11:09:32.717Z,51.216148
2022-08-03T11:10:32.714Z,51.216118
2022-08-03T11:11:32.692Z,51.216034
2022-08-03T11:12:32.886Z,51.216076
2022-08-03T11:13:32.719Z,51.216061
2022-08-03T11:14:32.680Z,51.216084
2022-08-03T11:15:33.688Z,51.216057
2022-08-03T11:16:32.683Z,51.216217
2022-08-03T11:17:32.673Z,51.216072
2022-08-03T11:18:32.688Z,51.216087
2022-08-03T11:19:32.672Z,51.216026
2022-08-03T11:20:33.652Z,51.216110
2022-08-03T11:21:33.652Z,51.216091
2022-08-03T11:22:32.656Z,51.216114
2022-08-03T11:24:05.335Z,51.216022
2022-08-03T11:24:33.644Z,51.216072